createdAt,value
2023-04-22T00:01:26.236Z,100210.88
2023-04-22T00:03:53.662Z,100207.31
2023-04-22T00:06:20.491Z,100199.03
2023-04-22T00:08:47.155Z,100209.25
2023-04-22T00:11:13.817Z,100205.69
2023-04-22T00:13:40.478Z,100202.16
2023-04-22T00:16:07.476Z,100196.50
2023-04-22T00:18:36.220Z,100199.16
2023-04-22T00:21:08.208Z,100190.00
2023-04-22T00:23:35.087Z,100186.03
2023-04-22T00:26:02.267Z,100192.06
2023-04-22T00:28:29.059Z,100176.59
2023-04-22T00:30:58.830Z,100178.94
2023-04-22T00:33:25.714Z,100171.78
2023-04-22T00:35:54.707Z,100164.66
2023-04-22T00:38:21.628Z,100163.16
2023-04-22T00:40:48.371Z,100152.88
2023-04-22T00:43:16.967Z,100155.66
2023-04-22T00:45:44.553Z,100149.78
2023-04-22T00:48:13.055Z,100149.41
2023-04-22T00:50:39.789Z,100152.97
2023-04-22T00:53:06.669Z,100157.00
2023-04-22T00:55:36.536Z,100155.50
2023-04-22T00:58:03.742Z,100152.38
2023-04-22T01:00:31.028Z,100145.25
2023-04-22T01:02:58.513Z,100151.13
2023-04-22T01:05:25.859Z,100137.22
2023-04-22T01:07:52.584Z,100141.81
2023-04-22T01:10:19.747Z,100135.16
2023-04-22T01:12:46.400Z,100130.75
2023-04-22T01:15:13.339Z,100127.66
2023-04-22T01:17:40.095Z,100125.34
2023-04-22T01:20:10.342Z,100122.25
2023-04-22T01:22:42.762Z,100120.63
2023-04-22T01:25:11.357Z,100106.38
2023-04-22T01:27:39.328Z,100108.66
2023-04-22T01:30:07.161Z,100099.59
2023-04-22T01:32:34.034Z,100093.59
2023-04-22T01:35:00.748Z,100089.94
2023-04-22T01:37:28.396Z,100073.72
2023-04-22T01:39:55.673Z,100078.44
2023-04-22T01:42:22.565Z,100080.41
2023-04-22T01:44:49.160Z,100083.16
2023-04-22T01:47:15.874Z,100090.31
2023-04-22T01:49:42.916Z,100086.47
2023-04-22T01:52:09.903Z,100081.75
2023-04-22T01:54:36.590Z,100081.28
2023-04-22T01:57:10.032Z,100077.38
2023-04-22T01:59:36.889Z,100074.50
2023-04-22T02:02:03.984Z,100075.69
2023-04-22T02:04:32.100Z,100067.28
2023-04-22T02:06:58.926Z,100073.25
2023-04-22T02:09:25.568Z,100068.91
2023-04-22T02:11:52.257Z,100070.41
2023-04-22T02:14:18.869Z,100065.34
2023-04-22T02:16:45.574Z,100062.69
2023-04-22T02:19:12.174Z,100060.34
2023-04-22T02:21:38.826Z,100070.69
2023-04-22T02:24:05.892Z,100062.69
2023-04-22T02:26:32.586Z,100066.59
2023-04-22T02:28:59.253Z,100052.75
2023-04-22T02:31:26.026Z,100056.22
2023-04-22T02:33:52.774Z,100045.53
2023-04-22T02:36:19.358Z,100047.94
2023-04-22T02:38:46.250Z,100046.69
2023-04-22T02:41:12.817Z,100049.81
2023-04-22T02:43:39.541Z,100048.91
2023-04-22T02:46:06.339Z,100045.00
2023-04-22T02:48:32.982Z,100033.94
2023-04-22T02:50:59.568Z,100031.19
2023-04-22T02:53:26.139Z,100034.66
2023-04-22T02:55:52.791Z,100026.72
2023-04-22T02:58:19.519Z,100031.44
2023-04-22T03:00:46.238Z,100033.03
2023-04-22T03:03:13.441Z,100023.50
2023-04-22T03:05:40.611Z,100020.75
2023-04-22T03:08:07.259Z,100013.25
2023-04-22T03:10:33.998Z,100012.56
2023-04-22T03:13:00.643Z,100020.47
2023-04-22T03:15:27.368Z,100006.22
2023-04-22T03:17:54.032Z,99994.28
2023-04-22T03:20:20.965Z,99995.81
2023-04-22T03:22:47.652Z,99993.38
2023-04-22T03:25:14.737Z,99987.84
2023-04-22T03:27:41.447Z,99983.84
2023-04-22T03:30:09.695Z,99968.41
2023-04-22T03:32:36.456Z,99977.50
2023-04-22T03:35:03.184Z,99968.88
2023-04-22T03:37:29.889Z,99971.66
2023-04-22T03:39:56.520Z,99966.13
2023-04-22T03:42:23.259Z,99968.41
2023-04-22T03:44:49.919Z,99966.38
2023-04-22T03:47:16.608Z,99950.53
2023-04-22T03:49:43.756Z,99946.16
2023-04-22T03:52:10.644Z,99946.50
2023-04-22T03:54:37.282Z,99942.13
2023-04-22T03:57:04.007Z,99935.00
2023-04-22T03:59:30.673Z,99932.25
2023-04-22T04:01:57.445Z,99927.19
2023-04-22T04:04:24.602Z,99917.72
2023-04-22T04:06:51.569Z,99927.97
2023-04-22T04:09:18.236Z,99910.25
2023-04-22T04:11:44.881Z,99911.38
2023-04-22T04:14:11.515Z,99918.91
2023-04-22T04:16:39.163Z,99915.75
2023-04-22T04:19:06.431Z,99913.81
2023-04-22T04:21:34.268Z,99912.56
2023-04-22T04:24:00.973Z,99907.75
2023-04-22T04:26:28.839Z,99913.28
2023-04-22T04:28:55.894Z,99906.94
2023-04-22T04:31:25.026Z,99902.22
2023-04-22T04:33:52.494Z,99888.41
2023-04-22T04:36:19.904Z,99881.00
2023-04-22T04:38:47.803Z,99884.25
2023-04-22T04:41:14.628Z,99875.13
2023-04-22T04:43:41.308Z,99866.84
2023-04-22T04:46:08.464Z,99862.84
2023-04-22T04:48:36.339Z,99854.91
2023-04-22T04:51:04.505Z,99851.38
2023-04-22T04:53:31.101Z,99849.31
2023-04-22T04:55:57.721Z,99841.31
2023-04-22T04:58:24.421Z,99842.44
2023-04-22T05:00:51.273Z,99842.34
2023-04-22T05:03:19.874Z,99841.56
2023-04-22T05:05:48.939Z,99840.41
2023-04-22T05:08:15.682Z,99841.13
2023-04-22T05:10:42.747Z,99831.59
2023-04-22T05:13:09.366Z,99831.97
2023-04-22T05:15:36.218Z,99834.63
2023-04-22T05:18:03.122Z,99839.34
2023-04-22T05:20:29.828Z,99836.94
2023-04-22T05:22:56.446Z,99831.84
2023-04-22T05:25:24.236Z,99831.50
2023-04-22T05:27:59.684Z,99828.38
2023-04-22T05:30:27.480Z,99820.91
2023-04-22T05:32:54.165Z,99816.97
2023-04-22T05:35:20.924Z,99832.38
2023-04-22T05:37:47.585Z,99828.47
2023-04-22T05:40:14.186Z,99826.16
2023-04-22T05:42:40.872Z,99830.97
2023-04-22T05:45:08.337Z,99832.56
2023-04-22T05:47:35.084Z,99822.25
2023-04-22T05:50:01.764Z,99820.19
2023-04-22T05:52:28.471Z,99819.03
2023-04-22T05:54:55.037Z,99827.31
2023-04-22T05:57:21.761Z,99819.41
2023-04-22T05:59:48.449Z,99819.72
2023-04-22T06:02:16.256Z,99817.72
2023-04-22T06:04:43.370Z,99820.91
2023-04-22T06:07:10.541Z,99815.38
2023-04-22T06:09:38.402Z,99814.94
2023-04-22T06:12:06.166Z,99811.00
2023-04-22T06:14:32.798Z,99807.53
2023-04-22T06:16:59.435Z,99803.16
2023-04-22T06:19:26.162Z,99810.66
2023-04-22T06:21:53.615Z,99810.31
2023-04-22T06:24:22.331Z,99813.44
2023-04-22T06:26:49.151Z,99812.63
2023-04-22T06:29:16.070Z,99811.00
2023-04-22T06:31:42.829Z,99807.44
2023-04-22T06:34:09.503Z,99803.44
2023-04-22T06:36:37.748Z,99801.50
2023-04-22T06:39:05.783Z,99792.88
2023-04-22T06:41:33.226Z,99787.41
2023-04-22T06:43:59.858Z,99778.50
2023-04-22T06:46:26.702Z,99785.44
2023-04-22T06:48:53.448Z,99775.34
2023-04-22T06:51:20.064Z,99771.94
2023-04-22T06:53:46.708Z,99774.44
2023-04-22T06:56:13.485Z,99774.94
2023-04-22T06:58:40.058Z,99773.94
2023-04-22T07:01:06.752Z,99773.28
2023-04-22T07:03:34.150Z,99771.75
2023-04-22T07:06:01.182Z,99774.59
2023-04-22T07:08:27.994Z,99767.53
2023-04-22T07:10:54.845Z,99770.03
2023-04-22T07:13:21.560Z,99762.16
2023-04-22T07:15:48.261Z,99774.41
2023-04-22T07:18:14.922Z,99767.69
2023-04-22T07:20:41.519Z,99772.44
2023-04-22T07:23:08.180Z,99769.97
2023-04-22T07:25:34.811Z,99770.59
2023-04-22T07:28:01.409Z,99769.66
2023-04-22T07:30:28.084Z,99760.84
2023-04-22T07:32:56.126Z,99752.47
2023-04-22T07:35:23.338Z,99761.56
2023-04-22T07:37:50.049Z,99752.41
2023-04-22T07:40:16.813Z,99747.94
2023-04-22T07:42:43.466Z,99745.56
2023-04-22T07:45:10.853Z,99756.63
2023-04-22T07:47:37.555Z,99746.28
2023-04-22T07:50:04.661Z,99737.56
2023-04-22T07:52:31.452Z,99737.56
2023-04-22T07:54:59.121Z,99736.38
2023-04-22T07:57:26.034Z,99732.09
2023-04-22T07:59:52.789Z,99737.28
2023-04-22T08:02:19.732Z,99742.00
2023-04-22T08:04:46.585Z,99733.63
2023-04-22T08:07:31.760Z,99734.81
2023-04-22T08:09:59.759Z,99732.75
2023-04-22T08:12:26.409Z,99729.09
2023-04-22T08:14:53.052Z,99732.66
2023-04-22T08:17:22.071Z,99731.09
2023-04-22T08:19:49.285Z,99735.81
2023-04-22T08:22:17.851Z,99730.63
2023-04-22T08:24:44.874Z,99722.72
2023-04-22T08:27:11.852Z,99727.44
2023-04-22T08:29:38.672Z,99723.16
2023-04-22T08:32:05.660Z,99719.22
2023-04-22T08:34:32.289Z,99718.06
2023-04-22T08:36:59.078Z,99708.19
2023-04-22T08:39:25.852Z,99707.00
2023-04-22T08:41:53.335Z,99701.06
2023-04-22T08:44:21.907Z,99693.13
2023-04-22T08:46:49.267Z,99697.06
2023-04-22T08:49:16.310Z,99690.00
2023-04-22T08:51:44.308Z,99700.25
2023-04-22T08:54:12.979Z,99699.47
2023-04-22T08:56:45.319Z,99690.72
2023-04-22T08:59:12.894Z,99697.84
2023-04-22T09:01:41.430Z,99700.19
2023-04-22T09:04:10.955Z,99692.72
2023-04-22T09:06:39.170Z,99692.75
2023-04-22T09:09:06.091Z,99691.63
2023-04-22T09:11:33.429Z,99683.75
2023-04-22T09:14:00.159Z,99680.66
2023-04-22T09:16:26.786Z,99677.53
2023-04-22T09:18:53.523Z,99672.72
2023-04-22T09:21:20.375Z,99669.16
2023-04-22T09:23:54.310Z,99668.00
2023-04-22T09:26:23.487Z,99664.81
2023-04-22T09:29:01.166Z,99664.81
2023-04-22T09:31:28.939Z,99659.00
2023-04-22T09:33:59.087Z,99655.50
2023-04-22T09:36:30.285Z,99660.75
2023-04-22T09:39:00.053Z,99655.25
2023-04-22T09:41:38.754Z,99652.97
2023-04-22T09:44:16.094Z,99660.44
2023-04-22T09:46:44.309Z,99650.84
2023-04-22T09:49:11.374Z,99655.84
2023-04-22T09:51:41.512Z,99662.81
2023-04-22T09:54:10.450Z,99660.88
2023-04-22T09:57:04.028Z,99650.63
2023-04-22T09:59:32.023Z,99662.81
2023-04-22T10:02:01.274Z,99652.22
2023-04-22T10:04:28.445Z,99654.91
2023-04-22T10:06:55.896Z,99652.16
2023-04-22T10:09:24.202Z,99658.03
2023-04-22T10:11:54.098Z,99657.59
2023-04-22T10:14:24.570Z,99651.63
2023-04-22T10:16:54.419Z,99647.78
2023-04-22T10:19:23.610Z,99646.00
2023-04-22T10:21:56.174Z,99647.72
2023-04-22T10:24:27.159Z,99635.16
2023-04-22T10:26:57.799Z,99649.41
2023-04-22T10:29:27.371Z,99643.16
2023-04-22T10:31:59.641Z,99640.88
2023-04-22T10:34:26.205Z,99638.69
2023-04-22T10:36:57.529Z,99634.16
2023-04-22T10:39:25.360Z,99629.47
2023-04-22T10:41:54.345Z,99633.97
2023-04-22T10:44:22.725Z,99624.22
2023-04-22T10:46:52.968Z,99638.16
2023-04-22T10:49:24.566Z,99630.75
2023-04-22T10:51:55.558Z,99634.66
2023-04-22T10:54:31.545Z,99626.88
2023-04-22T10:57:08.591Z,99622.72
2023-04-22T10:59:42.308Z,99635.81
2023-04-22T11:02:12.066Z,99633.03
2023-04-22T11:04:39.949Z,99628.72
2023-04-22T11:07:13.418Z,99623.66
2023-04-22T11:09:41.333Z,99626.34
2023-04-22T11:12:35.963Z,99642.94
2023-04-22T11:15:10.595Z,99639.75
2023-04-22T11:17:38.414Z,99640.59
2023-04-22T11:20:07.427Z,99639.88
2023-04-22T11:22:39.757Z,99634.31
2023-04-22T11:25:06.770Z,99631.03
2023-04-22T11:27:33.466Z,99634.66
2023-04-22T11:30:07.637Z,99631.97
2023-04-22T11:32:39.001Z,99640.00
2023-04-22T11:35:08.419Z,99639.72
2023-04-22T11:37:52.623Z,99627.94
2023-04-22T11:40:30.627Z,99634.78
2023-04-22T11:43:00.254Z,99628.97
2023-04-22T11:45:28.630Z,99626.03
2023-04-22T11:47:56.563Z,99631.84
2023-04-22T11:50:28.528Z,99623.78
2023-04-22T11:53:01.287Z,99630.09
2023-04-22T11:55:38.313Z,99626.91
2023-04-22T11:58:08.196Z,99623.72
2023-04-22T12:01:01.272Z,99634.03
2023-04-22T12:03:30.202Z,99628.84
2023-04-22T12:05:59.678Z,99636.34
2023-04-22T12:08:30.601Z,99633.66
2023-04-22T12:10:59.737Z,99627.03
2023-04-22T12:13:30.403Z,99632.66
2023-04-22T12:16:13.968Z,99630.69
2023-04-22T12:18:47.969Z,99631.50
2023-04-22T12:21:17.379Z,99628.00
2023-04-22T12:23:45.792Z,99621.69
2023-04-22T12:26:13.678Z,99622.03
2023-04-22T12:28:40.989Z,99622.41
2023-04-22T12:31:08.700Z,99627.03
2023-04-22T12:33:36.484Z,99621.47
2023-04-22T12:36:03.881Z,99625.47
2023-04-22T12:38:30.722Z,99623.44
2023-04-22T12:40:58.598Z,99629.47
2023-04-22T12:43:25.721Z,99621.63
2023-04-22T12:45:52.461Z,99631.84
2023-04-22T12:48:19.237Z,99627.13
2023-04-22T12:50:46.482Z,99624.28
2023-04-22T12:53:13.176Z,99622.41
2023-04-22T12:55:41.069Z,99630.50
2023-04-22T12:58:08.124Z,99629.13
2023-04-22T13:00:36.068Z,99629.25
2023-04-22T13:03:03.719Z,99625.75
2023-04-22T13:05:32.847Z,99627.44
2023-04-22T13:08:07.361Z,99635.41
2023-04-22T13:10:35.840Z,99631.22
2023-04-22T13:15:37.691Z,99632.88
2023-04-22T13:18:04.429Z,99628.66
2023-04-22T13:20:31.142Z,99622.69
2023-04-22T13:22:58.636Z,99622.41
2023-04-22T13:25:25.339Z,99627.53
2023-04-22T13:27:52.056Z,99614.13
2023-04-22T13:30:18.798Z,99614.84
2023-04-22T13:32:45.880Z,99623.50
2023-04-22T13:35:12.840Z,99614.84
2023-04-22T13:37:39.485Z,99620.44
2023-04-22T13:40:06.784Z,99618.91
2023-04-22T13:42:33.673Z,99625.66
2023-04-22T13:45:00.854Z,99626.81
2023-04-22T13:47:27.679Z,99613.38
2023-04-22T13:49:54.353Z,99616.78
2023-04-22T13:52:21.000Z,99617.09
2023-04-22T13:54:47.774Z,99606.78
2023-04-22T13:57:14.390Z,99611.53
2023-04-22T13:59:41.694Z,99608.75
2023-04-22T14:02:08.690Z,99614.72
2023-04-22T14:04:35.477Z,99603.53
2023-04-22T14:07:02.722Z,99610.63
2023-04-22T14:09:29.442Z,99606.00
2023-04-22T14:11:56.993Z,99602.78
2023-04-22T14:14:23.793Z,99600.41
2023-04-22T14:16:51.939Z,99594.88
2023-04-22T14:19:18.757Z,99595.00
2023-04-22T14:21:45.738Z,99595.81
2023-04-22T14:24:12.494Z,99587.94
2023-04-22T14:26:39.156Z,99590.69
2023-04-22T14:29:05.859Z,99580.84
2023-04-22T14:31:32.797Z,99580.84
2023-04-22T14:33:59.457Z,99582.88
2023-04-22T14:36:28.801Z,99577.88
2023-04-22T14:38:55.518Z,99577.59
2023-04-22T14:41:22.398Z,99593.09
2023-04-22T14:43:49.107Z,99586.44
2023-04-22T14:46:15.779Z,99591.25
2023-04-22T14:48:42.700Z,99585.25
2023-04-22T14:51:09.523Z,99590.78
2023-04-22T14:53:36.512Z,99586.06
2023-04-22T14:56:03.665Z,99585.25
2023-04-22T14:58:33.181Z,99582.88
2023-04-22T15:01:01.197Z,99578.97
2023-04-22T15:03:28.210Z,99582.94
2023-04-22T15:05:55.768Z,99575.81
2023-04-22T15:08:25.202Z,99579.00
2023-04-22T15:10:52.014Z,99569.63
2023-04-22T15:13:19.758Z,99582.34
2023-04-22T15:15:46.884Z,99566.16
2023-04-22T15:18:13.865Z,99566.28
2023-04-22T15:20:41.494Z,99573.53
2023-04-22T15:23:08.159Z,99571.63
2023-04-22T15:25:35.887Z,99571.63
2023-04-22T15:28:03.238Z,99580.38
2023-04-22T15:30:30.918Z,99579.53
2023-04-22T15:32:57.619Z,99576.34
2023-04-22T15:35:24.613Z,99578.63
2023-04-22T15:37:52.680Z,99575.03
2023-04-22T15:40:19.425Z,99582.44
2023-04-22T15:42:46.154Z,99581.91
2023-04-22T15:45:13.159Z,99575.88
2023-04-22T15:47:40.771Z,99572.00
2023-04-22T15:50:09.442Z,99567.31
2023-04-22T15:52:38.405Z,99567.88
2023-04-22T15:55:06.481Z,99560.06
2023-04-22T15:57:35.379Z,99561.44
2023-04-22T16:00:11.659Z,99550.50
2023-04-22T16:02:40.781Z,99549.81
2023-04-22T16:05:08.145Z,99551.56
2023-04-22T16:07:35.368Z,99556.06
2023-04-22T16:10:04.056Z,99552.81
2023-04-22T16:12:34.184Z,99559.47
2023-04-22T16:15:01.431Z,99559.56
2023-04-22T16:17:28.336Z,99557.63
2023-04-22T16:19:55.237Z,99560.47
2023-04-22T16:22:21.909Z,99564.19
2023-04-22T16:24:48.767Z,99557.78
2023-04-22T16:27:18.162Z,99561.94
2023-04-22T16:29:45.128Z,99554.53
2023-04-22T16:32:12.114Z,99553.72
2023-04-22T16:34:39.001Z,99544.75
2023-04-22T16:37:08.573Z,99543.75
2023-04-22T16:39:35.478Z,99540.25
2023-04-22T16:42:03.046Z,99542.66
2023-04-22T16:44:29.856Z,99543.13
2023-04-22T16:46:56.520Z,99550.66
2023-04-22T16:49:23.213Z,99547.44
2023-04-22T16:51:49.968Z,99548.97
2023-04-22T16:54:16.608Z,99544.09
2023-04-22T16:56:43.180Z,99543.16
2023-04-22T16:59:09.911Z,99544.66
2023-04-22T17:01:36.684Z,99545.31
2023-04-22T17:04:03.530Z,99547.44
2023-04-22T17:06:31.327Z,99542.53
2023-04-22T17:08:58.232Z,99541.19
2023-04-22T17:11:25.392Z,99539.06
2023-04-22T17:13:53.042Z,99538.94
2023-04-22T17:16:19.774Z,99533.63
2023-04-22T17:18:47.683Z,99537.84
2023-04-22T17:21:14.953Z,99530.22
2023-04-22T17:23:41.604Z,99531.31
2023-04-22T17:26:08.593Z,99521.69
2023-04-22T17:28:35.659Z,99528.72
2023-04-22T17:31:03.947Z,99522.72
2023-04-22T17:33:31.346Z,99518.28
2023-04-22T17:35:58.061Z,99522.09
2023-04-22T17:38:24.732Z,99523.16
2023-04-22T17:40:51.397Z,99521.03
2023-04-22T17:43:18.168Z,99522.91
2023-04-22T17:45:44.795Z,99514.50
2023-04-22T17:48:11.434Z,99513.94
2023-04-22T17:50:38.088Z,99527.78
2023-04-22T17:53:04.793Z,99514.78
2023-04-22T17:55:35.073Z,99520.63
2023-04-22T17:58:02.542Z,99515.88
2023-04-22T18:00:29.455Z,99519.06
2023-04-22T18:02:56.398Z,99510.69
2023-04-22T18:05:23.342Z,99510.28
2023-04-22T18:07:50.313Z,99510.22
2023-04-22T18:10:16.994Z,99520.44
2023-04-22T18:12:43.834Z,99512.78
2023-04-22T18:15:10.728Z,99513.97
2023-04-22T18:17:37.397Z,99519.13
2023-04-22T18:20:16.498Z,99514.34
2023-04-22T18:22:43.967Z,99509.59
2023-04-22T18:25:10.747Z,99507.66
2023-04-22T18:27:37.413Z,99509.19
2023-04-22T18:30:04.754Z,99515.06
2023-04-22T18:32:31.561Z,99509.91
2023-04-22T18:34:58.565Z,99511.50
2023-04-22T18:37:29.646Z,99512.31
2023-04-22T18:39:57.746Z,99502.84
2023-04-22T18:42:24.624Z,99505.63
2023-04-22T18:44:51.341Z,99501.13
2023-04-22T18:47:17.982Z,99509.66
2023-04-22T18:49:45.547Z,99501.31
2023-04-22T18:52:12.918Z,99501.75
2023-04-22T18:54:39.856Z,99504.13
2023-04-22T18:57:06.943Z,99492.25
2023-04-22T18:59:33.664Z,99496.53
2023-04-22T19:02:00.597Z,99500.75
2023-04-22T19:04:27.713Z,99504.25
2023-04-22T19:06:57.011Z,99503.81
2023-04-22T19:09:24.052Z,99503.81
2023-04-22T19:11:50.817Z,99506.22
2023-04-22T19:14:17.582Z,99497.50
2023-04-22T19:16:44.364Z,99501.41
2023-04-22T19:19:12.226Z,99497.38
2023-04-22T19:21:39.622Z,99493.72
2023-04-22T19:24:06.690Z,99500.34
2023-04-22T19:26:34.411Z,99497.00
2023-04-22T19:29:04.914Z,99492.09
2023-04-22T19:31:33.092Z,99501.03
2023-04-22T19:34:03.962Z,99495.81
2023-04-22T19:36:51.289Z,99501.16
2023-04-22T19:39:37.953Z,99495.50
2023-04-22T19:42:05.857Z,99490.34
2023-04-22T19:44:32.731Z,99490.72
2023-04-22T19:46:59.478Z,99497.75
2023-04-22T19:49:26.566Z,99496.59
2023-04-22T19:51:53.907Z,99495.44
2023-04-22T19:54:21.997Z,99500.22
2023-04-22T19:56:49.201Z,99490.00
2023-04-22T19:59:16.072Z,99494.72
2023-04-22T20:01:43.171Z,99497.19
2023-04-22T20:04:10.192Z,99497.19
2023-04-22T20:06:37.772Z,99501.13
2023-04-22T20:09:05.805Z,99493.19
2023-04-22T20:11:33.049Z,99491.94
2023-04-22T20:14:00.119Z,99500.22
2023-04-22T20:16:27.873Z,99499.50
2023-04-22T20:18:55.355Z,99493.56
2023-04-22T20:21:22.321Z,99496.22
2023-04-22T20:23:51.119Z,99489.47
2023-04-22T20:26:21.400Z,99491.09
2023-04-22T20:28:52.148Z,99481.59
2023-04-22T20:31:20.646Z,99485.91
2023-04-22T20:33:47.535Z,99490.63
2023-04-22T20:36:17.070Z,99493.78
2023-04-22T20:38:48.734Z,99496.91
2023-04-22T20:41:19.048Z,99487.75
2023-04-22T20:43:46.672Z,99490.06
2023-04-22T20:46:13.460Z,99486.78
2023-04-22T20:48:40.121Z,99491.16
2023-04-22T20:51:07.063Z,99485.56
2023-04-22T20:53:36.299Z,99493.03
2023-04-22T20:56:03.253Z,99489.03
2023-04-22T20:58:30.154Z,99489.03
2023-04-22T21:00:56.975Z,99487.78
2023-04-22T21:03:25.243Z,99486.19
2023-04-22T21:05:52.401Z,99483.38
2023-04-22T21:08:23.411Z,99476.50
2023-04-22T21:10:52.797Z,99470.09
2023-04-22T21:13:19.971Z,99484.16
2023-04-22T21:16:08.976Z,99478.22
2023-04-22T21:18:44.662Z,99481.78
2023-04-22T21:21:14.234Z,99477.88
2023-04-22T21:23:42.211Z,99483.72
2023-04-22T21:26:10.099Z,99478.50
2023-04-22T21:28:37.656Z,99479.22
2023-04-22T21:31:04.807Z,99476.03
2023-04-22T21:33:33.360Z,99480.72
2023-04-22T21:36:00.502Z,99474.06
2023-04-22T21:38:27.436Z,99469.78
2023-04-22T21:40:54.197Z,99468.19
2023-04-22T21:43:20.890Z,99465.09
2023-04-22T21:45:47.514Z,99471.03
2023-04-22T21:48:14.152Z,99471.31
2023-04-22T21:50:41.916Z,99470.50
2023-04-22T21:53:08.560Z,99466.50
2023-04-22T21:55:35.181Z,99475.22
2023-04-22T21:58:01.900Z,99475.22
2023-04-22T22:00:28.669Z,99468.91
2023-04-22T22:02:55.418Z,99469.69
2023-04-22T22:05:22.210Z,99465.44
2023-04-22T22:07:49.118Z,99467.38
2023-04-22T22:10:19.209Z,99465.88
2023-04-22T22:12:46.978Z,99469.84
2023-04-22T22:15:13.679Z,99474.59
2023-04-22T22:17:40.399Z,99465.09
2023-04-22T22:20:12.061Z,99463.84
2023-04-22T22:22:40.784Z,99463.84
2023-04-22T22:25:12.552Z,99469.78
2023-04-22T22:27:48.687Z,99458.06
2023-04-22T22:30:16.845Z,99467.56
2023-04-22T22:32:43.559Z,99458.84
2023-04-22T22:35:10.820Z,99462.75
2023-04-22T22:37:38.663Z,99467.91
2023-04-22T22:40:06.336Z,99461.97
2023-04-22T22:42:32.963Z,99465.09
2023-04-22T22:44:59.635Z,99461.53
2023-04-22T22:47:26.638Z,99466.22
2023-04-22T22:49:53.617Z,99464.28
2023-04-22T22:52:20.361Z,99471.47
2023-04-22T22:54:48.976Z,99461.25
2023-04-22T22:57:16.336Z,99463.09
2023-04-22T22:59:43.026Z,99459.91
2023-04-22T23:02:10.155Z,99463.38
2023-04-22T23:04:37.577Z,99450.31
2023-04-22T23:07:04.411Z,99460.47
2023-04-22T23:09:31.102Z,99451.06
2023-04-22T23:11:58.489Z,99455.69
2023-04-22T23:14:28.232Z,99451.25
2023-04-22T23:16:54.886Z,99448.78
2023-04-22T23:19:21.953Z,99449.50
2023-04-22T23:21:49.986Z,99445.50
2023-04-22T23:24:17.082Z,99453.31
2023-04-22T23:26:44.128Z,99456.84
2023-04-22T23:29:11.030Z,99452.53
2023-04-22T23:31:41.756Z,99450.84
2023-04-22T23:34:09.492Z,99441.31
2023-04-22T23:36:37.416Z,99448.34
2023-04-22T23:39:06.644Z,99445.94
2023-04-22T23:41:33.666Z,99435.66
2023-04-22T23:44:00.388Z,99444.28
2023-04-22T23:46:27.150Z,99439.09
2023-04-22T23:48:54.443Z,99439.56
2023-04-22T23:51:21.178Z,99437.16
2023-04-22T23:53:47.812Z,99441.88
2023-04-22T23:56:14.929Z,99445.09
2023-04-22T23:58:42.015Z,99441.16
